sensor_id;sensor_type;location;lat;lon;timestamp;P1;durP1;ratioP1;P2;durP2;ratioP2
60859;SDS011;46694;54.382;9.708;2023-03-08T00:01:31;6.72;;;1.15;;
60859;SDS011;46694;54.382;9.708;2023-03-08T00:04:10;4.53;;;0.85;;
60859;SDS011;46694;54.382;9.708;2023-03-08T00:06:50;5.25;;;0.80;;
60859;SDS011;46694;54.382;9.708;2023-03-08T00:09:29;6.68;;;0.82;;
60859;SDS011;46694;54.382;9.708;2023-03-08T00:12:09;3.53;;;0.90;;
60859;SDS011;46694;54.382;9.708;2023-03-08T00:14:48;4.07;;;1.10;;
60859;SDS011;46694;54.382;9.708;2023-03-08T00:17:28;2.47;;;0.90;;
60859;SDS011;46694;54.382;9.708;2023-03-08T00:20:09;0.98;;;0.80;;
60859;SDS011;46694;54.382;9.708;2023-03-08T00:22:50;3.15;;;0.93;;
60859;SDS011;46694;54.382;9.708;2023-03-08T00:25:30;2.42;;;0.75;;
60859;SDS011;46694;54.382;9.708;2023-03-08T00:28:10;3.25;;;0.98;;
60859;SDS011;46694;54.382;9.708;2023-03-08T00:30:56;5.65;;;0.93;;
60859;SDS011;46694;54.382;9.708;2023-03-08T00:33:38;3.03;;;0.85;;
60859;SDS011;46694;54.382;9.708;2023-03-08T00:36:18;3.53;;;1.10;;
60859;SDS011;46694;54.382;9.708;2023-03-08T00:38:57;4.72;;;1.13;;
60859;SDS011;46694;54.382;9.708;2023-03-08T00:41:37;6.63;;;0.70;;
60859;SDS011;46694;54.382;9.708;2023-03-08T00:44:16;8.60;;;1.42;;
60859;SDS011;46694;54.382;9.708;2023-03-08T00:46:56;6.95;;;0.93;;
60859;SDS011;46694;54.382;9.708;2023-03-08T00:49:36;11.55;;;1.05;;
60859;SDS011;46694;54.382;9.708;2023-03-08T00:52:15;11.98;;;1.10;;
60859;SDS011;46694;54.382;9.708;2023-03-08T00:54:54;4.93;;;1.17;;
60859;SDS011;46694;54.382;9.708;2023-03-08T00:57:34;4.95;;;0.98;;
60859;SDS011;46694;54.382;9.708;2023-03-08T01:00:14;2.05;;;0.65;;
60859;SDS011;46694;54.382;9.708;2023-03-08T01:02:54;4.10;;;1.05;;
60859;SDS011;46694;54.382;9.708;2023-03-08T01:05:38;9.45;;;1.17;;
60859;SDS011;46694;54.382;9.708;2023-03-08T01:08:29;8.07;;;1.05;;
60859;SDS011;46694;54.382;9.708;2023-03-08T01:11:15;2.58;;;0.80;;
60859;SDS011;46694;54.382;9.708;2023-03-08T01:14:02;3.17;;;1.15;;
60859;SDS011;46694;54.382;9.708;2023-03-08T01:16:45;2.35;;;1.10;;
60859;SDS011;46694;54.382;9.708;2023-03-08T01:19:25;3.33;;;0.55;;
60859;SDS011;46694;54.382;9.708;2023-03-08T01:22:05;7.55;;;1.27;;
60859;SDS011;46694;54.382;9.708;2023-03-08T01:24:45;7.03;;;0.98;;
60859;SDS011;46694;54.382;9.708;2023-03-08T01:27:25;3.42;;;1.20;;
60859;SDS011;46694;54.382;9.708;2023-03-08T01:30:05;3.30;;;0.70;;
60859;SDS011;46694;54.382;9.708;2023-03-08T01:32:46;6.07;;;1.50;;
60859;SDS011;46694;54.382;9.708;2023-03-08T01:35:25;1.40;;;1.00;;
60859;SDS011;46694;54.382;9.708;2023-03-08T01:38:05;4.32;;;0.82;;
60859;SDS011;46694;54.382;9.708;2023-03-08T01:40:44;3.92;;;1.10;;
60859;SDS011;46694;54.382;9.708;2023-03-08T01:43:28;3.80;;;0.90;;
60859;SDS011;46694;54.382;9.708;2023-03-08T01:49:29;5.07;;;0.70;;
60859;SDS011;46694;54.382;9.708;2023-03-08T01:52:20;5.85;;;1.00;;
60859;SDS011;46694;54.382;9.708;2023-03-08T01:55:09;2.50;;;0.70;;
60859;SDS011;46694;54.382;9.708;2023-03-08T01:57:51;3.15;;;1.13;;
60859;SDS011;46694;54.382;9.708;2023-03-08T02:00:33;3.58;;;1.42;;
60859;SDS011;46694;54.382;9.708;2023-03-08T02:03:12;6.15;;;2.35;;
60859;SDS011;46694;54.382;9.708;2023-03-08T02:05:52;4.03;;;1.13;;
60859;SDS011;46694;54.382;9.708;2023-03-08T02:08:31;9.30;;;1.35;;
60859;SDS011;46694;54.382;9.708;2023-03-08T02:11:11;11.05;;;1.42;;
60859;SDS011;46694;54.382;9.708;2023-03-08T02:13:53;3.08;;;0.88;;
60859;SDS011;46694;54.382;9.708;2023-03-08T02:16:33;1.63;;;0.80;;
60859;SDS011;46694;54.382;9.708;2023-03-08T02:19:14;2.85;;;0.82;;
60859;SDS011;46694;54.382;9.708;2023-03-08T02:22:20;5.82;;;1.52;;
60859;SDS011;46694;54.382;9.708;2023-03-08T02:24:59;4.00;;;1.10;;
60859;SDS011;46694;54.382;9.708;2023-03-08T02:27:39;5.85;;;1.10;;
60859;SDS011;46694;54.382;9.708;2023-03-08T02:30:23;3.35;;;1.20;;
60859;SDS011;46694;54.382;9.708;2023-03-08T02:33:05;4.10;;;1.00;;
60859;SDS011;46694;54.382;9.708;2023-03-08T02:35:45;1.88;;;0.90;;
60859;SDS011;46694;54.382;9.708;2023-03-08T02:38:24;4.35;;;1.00;;
60859;SDS011;46694;54.382;9.708;2023-03-08T02:41:04;7.57;;;1.75;;
60859;SDS011;46694;54.382;9.708;2023-03-08T02:43:44;2.05;;;0.80;;
60859;SDS011;46694;54.382;9.708;2023-03-08T02:46:23;4.57;;;0.90;;
60859;SDS011;46694;54.382;9.708;2023-03-08T02:49:03;3.42;;;0.80;;
60859;SDS011;46694;54.382;9.708;2023-03-08T02:51:46;4.25;;;1.10;;
60859;SDS011;46694;54.382;9.708;2023-03-08T02:54:25;10.80;;;1.50;;
60859;SDS011;46694;54.382;9.708;2023-03-08T02:57:05;6.68;;;1.02;;
60859;SDS011;46694;54.382;9.708;2023-03-08T02:59:45;15.52;;;2.58;;
60859;SDS011;46694;54.382;9.708;2023-03-08T03:02:24;3.70;;;1.52;;
60859;SDS011;46694;54.382;9.708;2023-03-08T03:05:04;4.88;;;1.10;;
60859;SDS011;46694;54.382;9.708;2023-03-08T03:07:48;2.85;;;1.23;;
60859;SDS011;46694;54.382;9.708;2023-03-08T03:10:27;11.02;;;1.38;;
60859;SDS011;46694;54.382;9.708;2023-03-08T03:13:07;10.90;;;1.35;;
60859;SDS011;46694;54.382;9.708;2023-03-08T03:15:46;4.20;;;1.10;;
60859;SDS011;46694;54.382;9.708;2023-03-08T03:18:26;5.50;;;1.23;;
60859;SDS011;46694;54.382;9.708;2023-03-08T03:21:10;7.35;;;1.30;;
60859;SDS011;46694;54.382;9.708;2023-03-08T03:23:52;1.70;;;0.98;;
60859;SDS011;46694;54.382;9.708;2023-03-08T03:26:32;4.45;;;1.25;;
60859;SDS011;46694;54.382;9.708;2023-03-08T03:29:12;3.70;;;1.20;;
60859;SDS011;46694;54.382;9.708;2023-03-08T03:31:51;3.03;;;0.88;;
60859;SDS011;46694;54.382;9.708;2023-03-08T03:34:31;4.53;;;0.80;;
60859;SDS011;46694;54.382;9.708;2023-03-08T03:37:11;3.88;;;1.30;;
60859;SDS011;46694;54.382;9.708;2023-03-08T03:39:51;5.57;;;1.15;;
60859;SDS011;46694;54.382;9.708;2023-03-08T03:42:30;6.43;;;1.27;;
60859;SDS011;46694;54.382;9.708;2023-03-08T03:45:10;3.70;;;0.95;;
60859;SDS011;46694;54.382;9.708;2023-03-08T03:47:49;2.08;;;0.80;;
60859;SDS011;46694;54.382;9.708;2023-03-08T03:50:29;1.65;;;0.80;;
60859;SDS011;46694;54.382;9.708;2023-03-08T03:53:09;2.53;;;1.00;;
60859;SDS011;46694;54.382;9.708;2023-03-08T03:55:48;2.97;;;1.30;;
60859;SDS011;46694;54.382;9.708;2023-03-08T03:58:27;4.38;;;1.27;;
60859;SDS011;46694;54.382;9.708;2023-03-08T04:01:11;3.20;;;1.00;;
60859;SDS011;46694;54.382;9.708;2023-03-08T04:04:02;4.15;;;1.00;;
60859;SDS011;46694;54.382;9.708;2023-03-08T04:06:41;3.03;;;1.60;;
60859;SDS011;46694;54.382;9.708;2023-03-08T04:09:21;7.68;;;1.25;;
60859;SDS011;46694;54.382;9.708;2023-03-08T04:12:00;4.05;;;1.65;;
60859;SDS011;46694;54.382;9.708;2023-03-08T04:14:43;3.33;;;2.00;;
60859;SDS011;46694;54.382;9.708;2023-03-08T04:17:22;5.53;;;2.90;;
60859;SDS011;46694;54.382;9.708;2023-03-08T04:20:02;2.92;;;2.60;;
60859;SDS011;46694;54.382;9.708;2023-03-08T04:22:43;4.72;;;3.20;;
60859;SDS011;46694;54.382;9.708;2023-03-08T04:25:23;6.10;;;2.75;;
60859;SDS011;46694;54.382;9.708;2023-03-08T04:28:03;4.80;;;2.90;;
60859;SDS011;46694;54.382;9.708;2023-03-08T04:30:42;2.75;;;2.55;;
60859;SDS011;46694;54.382;9.708;2023-03-08T04:33:22;12.55;;;3.45;;
60859;SDS011;46694;54.382;9.708;2023-03-08T04:36:02;2.75;;;2.60;;
60859;SDS011;46694;54.382;9.708;2023-03-08T04:38:42;5.07;;;3.03;;
60859;SDS011;46694;54.382;9.708;2023-03-08T04:41:23;3.20;;;3.00;;
60859;SDS011;46694;54.382;9.708;2023-03-08T04:44:03;7.35;;;3.33;;
60859;SDS011;46694;54.382;9.708;2023-03-08T04:46:43;4.60;;;3.42;;
60859;SDS011;46694;54.382;9.708;2023-03-08T04:49:23;7.82;;;4.25;;
60859;SDS011;46694;54.382;9.708;2023-03-08T04:52:03;5.22;;;3.95;;
60859;SDS011;46694;54.382;9.708;2023-03-08T04:54:42;6.50;;;4.97;;
60859;SDS011;46694;54.382;9.708;2023-03-08T04:57:22;6.18;;;5.63;;
60859;SDS011;46694;54.382;9.708;2023-03-08T05:00:02;5.60;;;5.07;;
60859;SDS011;46694;54.382;9.708;2023-03-08T05:02:43;11.13;;;6.30;;
60859;SDS011;46694;54.382;9.708;2023-03-08T05:05:23;9.52;;;5.82;;
60859;SDS011;46694;54.382;9.708;2023-03-08T05:08:03;7.60;;;6.80;;
60859;SDS011;46694;54.382;9.708;2023-03-08T05:10:49;7.00;;;6.30;;
60859;SDS011;46694;54.382;9.708;2023-03-08T05:13:36;6.70;;;5.45;;
60859;SDS011;46694;54.382;9.708;2023-03-08T05:16:16;6.55;;;5.10;;
60859;SDS011;46694;54.382;9.708;2023-03-08T05:18:56;7.00;;;4.75;;
60859;SDS011;46694;54.382;9.708;2023-03-08T05:21:35;5.40;;;4.88;;
60859;SDS011;46694;54.382;9.708;2023-03-08T05:24:15;5.50;;;5.05;;
60859;SDS011;46694;54.382;9.708;2023-03-08T05:26:55;6.32;;;5.82;;
60859;SDS011;46694;54.382;9.708;2023-03-08T05:29:34;7.82;;;6.22;;
60859;SDS011;46694;54.382;9.708;2023-03-08T05:32:15;7.45;;;6.55;;
60859;SDS011;46694;54.382;9.708;2023-03-08T05:34:54;6.07;;;5.50;;
60859;SDS011;46694;54.382;9.708;2023-03-08T05:37:34;7.07;;;6.38;;
60859;SDS011;46694;54.382;9.708;2023-03-08T05:40:13;7.65;;;6.88;;
60859;SDS011;46694;54.382;9.708;2023-03-08T05:42:53;8.10;;;7.35;;
60859;SDS011;46694;54.382;9.708;2023-03-08T05:45:32;12.70;;;6.90;;
60859;SDS011;46694;54.382;9.708;2023-03-08T05:48:12;12.30;;;7.85;;
60859;SDS011;46694;54.382;9.708;2023-03-08T05:50:51;7.47;;;6.78;;
60859;SDS011;46694;54.382;9.708;2023-03-08T05:53:31;13.40;;;9.30;;
60859;SDS011;46694;54.382;9.708;2023-03-08T05:56:12;10.93;;;9.82;;
60859;SDS011;46694;54.382;9.708;2023-03-08T05:58:58;17.65;;;10.85;;
60859;SDS011;46694;54.382;9.708;2023-03-08T06:01:37;19.02;;;12.15;;
60859;SDS011;46694;54.382;9.708;2023-03-08T06:04:17;16.52;;;12.05;;
60859;SDS011;46694;54.382;9.708;2023-03-08T06:06:56;14.05;;;12.38;;
60859;SDS011;46694;54.382;9.708;2023-03-08T06:09:36;16.95;;;12.65;;
60859;SDS011;46694;54.382;9.708;2023-03-08T06:12:16;13.60;;;11.80;;
60859;SDS011;46694;54.382;9.708;2023-03-08T06:14:56;19.15;;;14.55;;
60859;SDS011;46694;54.382;9.708;2023-03-08T06:17:35;19.35;;;12.20;;
60859;SDS011;46694;54.382;9.708;2023-03-08T06:20:15;15.40;;;11.90;;
60859;SDS011;46694;54.382;9.708;2023-03-08T06:22:54;12.57;;;10.73;;
60859;SDS011;46694;54.382;9.708;2023-03-08T06:25:34;16.45;;;8.45;;
60859;SDS011;46694;54.382;9.708;2023-03-08T06:28:14;8.15;;;7.35;;
60859;SDS011;46694;54.382;9.708;2023-03-08T06:30:53;6.40;;;5.55;;
60859;SDS011;46694;54.382;9.708;2023-03-08T06:33:33;5.97;;;4.78;;
60859;SDS011;46694;54.382;9.708;2023-03-08T06:36:14;6.22;;;5.00;;
60859;SDS011;46694;54.382;9.708;2023-03-08T06:38:56;6.13;;;5.53;;
60859;SDS011;46694;54.382;9.708;2023-03-08T06:41:37;6.15;;;4.78;;
60859;SDS011;46694;54.382;9.708;2023-03-08T06:44:16;9.05;;;8.15;;
60859;SDS011;46694;54.382;9.708;2023-03-08T06:46:56;14.07;;;9.50;;
60859;SDS011;46694;54.382;9.708;2023-03-08T06:49:36;9.45;;;8.18;;
60859;SDS011;46694;54.382;9.708;2023-03-08T06:52:15;4.53;;;4.00;;
60859;SDS011;46694;54.382;9.708;2023-03-08T06:58:56;7.93;;;3.80;;
60859;SDS011;46694;54.382;9.708;2023-03-08T07:01:36;7.60;;;4.50;;
60859;SDS011;46694;54.382;9.708;2023-03-08T07:04:15;7.22;;;5.35;;
60859;SDS011;46694;54.382;9.708;2023-03-08T07:06:56;7.30;;;6.60;;
60859;SDS011;46694;54.382;9.708;2023-03-08T07:09:36;9.13;;;7.00;;
60859;SDS011;46694;54.382;9.708;2023-03-08T07:12:16;8.20;;;7.40;;
60859;SDS011;46694;54.382;9.708;2023-03-08T07:14:56;9.30;;;7.63;;
60859;SDS011;46694;54.382;9.708;2023-03-08T07:17:36;14.60;;;7.97;;
60859;SDS011;46694;54.382;9.708;2023-03-08T07:20:16;12.55;;;10.02;;
60859;SDS011;46694;54.382;9.708;2023-03-08T07:22:57;13.35;;;10.40;;
60859;SDS011;46694;54.382;9.708;2023-03-08T07:25:39;17.15;;;9.77;;
60859;SDS011;46694;54.382;9.708;2023-03-08T07:28:20;12.20;;;10.43;;
60859;SDS011;46694;54.382;9.708;2023-03-08T07:30:59;11.68;;;10.48;;
60859;SDS011;46694;54.382;9.708;2023-03-08T07:33:39;13.57;;;10.55;;
60859;SDS011;46694;54.382;9.708;2023-03-08T07:36:18;11.13;;;9.98;;
60859;SDS011;46694;54.382;9.708;2023-03-08T07:39:04;13.30;;;10.50;;
60859;SDS011;46694;54.382;9.708;2023-03-08T07:41:44;11.95;;;9.80;;
60859;SDS011;46694;54.382;9.708;2023-03-08T07:44:23;11.73;;;10.52;;
60859;SDS011;46694;54.382;9.708;2023-03-08T07:47:06;13.35;;;9.57;;
60859;SDS011;46694;54.382;9.708;2023-03-08T07:49:46;9.95;;;8.95;;
60859;SDS011;46694;54.382;9.708;2023-03-08T07:52:27;10.70;;;9.32;;
60859;SDS011;46694;54.382;9.708;2023-03-08T07:55:07;11.48;;;9.55;;
60859;SDS011;46694;54.382;9.708;2023-03-08T07:57:55;10.73;;;9.63;;
60859;SDS011;46694;54.382;9.708;2023-03-08T08:00:34;11.25;;;10.15;;
60859;SDS011;46694;54.382;9.708;2023-03-08T08:03:14;13.88;;;10.40;;
60859;SDS011;46694;54.382;9.708;2023-03-08T08:05:53;13.07;;;11.50;;
60859;SDS011;46694;54.382;9.708;2023-03-08T08:08:33;13.32;;;11.60;;
60859;SDS011;46694;54.382;9.708;2023-03-08T08:11:13;15.00;;;11.20;;
60859;SDS011;46694;54.382;9.708;2023-03-08T08:13:55;14.70;;;12.13;;
60859;SDS011;46694;54.382;9.708;2023-03-08T08:16:34;14.05;;;10.20;;
60859;SDS011;46694;54.382;9.708;2023-03-08T08:19:14;8.40;;;7.45;;
60859;SDS011;46694;54.382;9.708;2023-03-08T08:21:54;13.75;;;9.88;;
60859;SDS011;46694;54.382;9.708;2023-03-08T08:24:34;20.23;;;12.23;;
60859;SDS011;46694;54.382;9.708;2023-03-08T08:27:14;20.83;;;13.50;;
60859;SDS011;46694;54.382;9.708;2023-03-08T08:29:54;15.70;;;10.48;;
60859;SDS011;46694;54.382;9.708;2023-03-08T08:32:33;8.85;;;5.57;;
60859;SDS011;46694;54.382;9.708;2023-03-08T08:35:13;6.68;;;5.93;;
60859;SDS011;46694;54.382;9.708;2023-03-08T08:37:52;6.00;;;4.90;;
60859;SDS011;46694;54.382;9.708;2023-03-08T08:40:32;4.60;;;4.20;;
60859;SDS011;46694;54.382;9.708;2023-03-08T08:43:11;3.80;;;3.50;;
60859;SDS011;46694;54.382;9.708;2023-03-08T08:45:52;4.82;;;4.38;;
60859;SDS011;46694;54.382;9.708;2023-03-08T08:48:34;3.33;;;3.10;;
60859;SDS011;46694;54.382;9.708;2023-03-08T08:51:16;2.63;;;2.53;;
60859;SDS011;46694;54.382;9.708;2023-03-08T08:53:55;3.60;;;3.30;;
60859;SDS011;46694;54.382;9.708;2023-03-08T08:56:35;3.92;;;2.60;;
60859;SDS011;46694;54.382;9.708;2023-03-08T08:59:20;4.07;;;2.97;;
60859;SDS011;46694;54.382;9.708;2023-03-08T09:02:00;2.83;;;2.63;;
60859;SDS011;46694;54.382;9.708;2023-03-08T09:04:39;4.07;;;3.72;;
60859;SDS011;46694;54.382;9.708;2023-03-08T09:07:19;6.78;;;4.40;;
60859;SDS011;46694;54.382;9.708;2023-03-08T09:09:58;5.43;;;4.93;;
60859;SDS011;46694;54.382;9.708;2023-03-08T09:12:38;4.97;;;4.10;;
60859;SDS011;46694;54.382;9.708;2023-03-08T09:15:18;5.05;;;4.63;;
60859;SDS011;46694;54.382;9.708;2023-03-08T09:17:57;6.50;;;4.90;;
60859;SDS011;46694;54.382;9.708;2023-03-08T09:20:37;6.88;;;6.18;;
60859;SDS011;46694;54.382;9.708;2023-03-08T09:23:17;8.45;;;6.95;;
60859;SDS011;46694;54.382;9.708;2023-03-08T09:25:57;6.85;;;6.15;;
60859;SDS011;46694;54.382;9.708;2023-03-08T09:28:37;10.80;;;6.00;;
60859;SDS011;46694;54.382;9.708;2023-03-08T09:31:16;8.68;;;5.60;;
60859;SDS011;46694;54.382;9.708;2023-03-08T09:33:57;5.47;;;4.97;;
60859;SDS011;46694;54.382;9.708;2023-03-08T09:36:37;4.15;;;3.88;;
60859;SDS011;46694;54.382;9.708;2023-03-08T09:39:18;4.95;;;4.55;;
60859;SDS011;46694;54.382;9.708;2023-03-08T09:41:59;6.75;;;6.15;;
60859;SDS011;46694;54.382;9.708;2023-03-08T09:47:41;9.90;;;8.90;;
60859;SDS011;46694;54.382;9.708;2023-03-08T09:53:10;11.98;;;9.27;;
60859;SDS011;46694;54.382;9.708;2023-03-08T09:59:20;8.98;;;8.02;;
60859;SDS011;46694;54.382;9.708;2023-03-08T10:11:17;13.32;;;10.90;;
60859;SDS011;46694;54.382;9.708;2023-03-08T10:14:15;13.63;;;10.73;;
60859;SDS011;46694;54.382;9.708;2023-03-08T10:17:04;16.58;;;11.52;;
60859;SDS011;46694;54.382;9.708;2023-03-08T10:19:53;13.18;;;11.75;;
60859;SDS011;46694;54.382;9.708;2023-03-08T10:22:37;14.90;;;13.07;;
60859;SDS011;46694;54.382;9.708;2023-03-08T10:25:27;11.90;;;9.18;;
60859;SDS011;46694;54.382;9.708;2023-03-08T10:28:16;10.43;;;9.32;;
60859;SDS011;46694;54.382;9.708;2023-03-08T10:30:59;17.85;;;12.38;;
60859;SDS011;46694;54.382;9.708;2023-03-08T10:33:42;11.25;;;10.05;;
60859;SDS011;46694;54.382;9.708;2023-03-08T10:36:23;9.88;;;7.38;;
60859;SDS011;46694;54.382;9.708;2023-03-08T10:39:07;7.93;;;6.95;;
60859;SDS011;46694;54.382;9.708;2023-03-08T10:41:52;6.72;;;6.13;;
60859;SDS011;46694;54.382;9.708;2023-03-08T10:44:50;6.10;;;5.50;;
60859;SDS011;46694;54.382;9.708;2023-03-08T10:47:34;8.90;;;5.97;;
60859;SDS011;46694;54.382;9.708;2023-03-08T10:50:15;6.57;;;5.88;;
60859;SDS011;46694;54.382;9.708;2023-03-08T10:53:10;11.25;;;7.00;;
60859;SDS011;46694;54.382;9.708;2023-03-08T10:55:58;8.57;;;6.53;;
60859;SDS011;46694;54.382;9.708;2023-03-08T10:58:39;10.07;;;6.47;;
60859;SDS011;46694;54.382;9.708;2023-03-08T11:04:16;11.93;;;5.30;;
60859;SDS011;46694;54.382;9.708;2023-03-08T11:07:08;10.75;;;5.35;;
60859;SDS011;46694;54.382;9.708;2023-03-08T11:09:50;10.00;;;4.60;;
60859;SDS011;46694;54.382;9.708;2023-03-08T11:12:31;7.97;;;4.53;;
60859;SDS011;46694;54.382;9.708;2023-03-08T11:15:18;7.97;;;4.30;;
60859;SDS011;46694;54.382;9.708;2023-03-08T11:27:59;6.00;;;3.55;;
60859;SDS011;46694;54.382;9.708;2023-03-08T11:49:38;9.20;;;2.50;;
60859;SDS011;46694;54.382;9.708;2023-03-08T12:05:00;8.52;;;2.80;;
60859;SDS011;46694;54.382;9.708;2023-03-08T12:11:15;6.88;;;2.60;;
60859;SDS011;46694;54.382;9.708;2023-03-08T12:14:17;8.20;;;2.80;;
60859;SDS011;46694;54.382;9.708;2023-03-08T12:17:26;8.70;;;2.67;;
60859;SDS011;46694;54.382;9.708;2023-03-08T12:20:12;11.77;;;2.50;;
60859;SDS011;46694;54.382;9.708;2023-03-08T12:26:02;7.53;;;3.05;;
60859;SDS011;46694;54.382;9.708;2023-03-08T12:28:59;6.65;;;2.25;;
60859;SDS011;46694;54.382;9.708;2023-03-08T12:31:51;8.60;;;2.65;;
60859;SDS011;46694;54.382;9.708;2023-03-08T12:37:20;13.20;;;2.80;;
60859;SDS011;46694;54.382;9.708;2023-03-08T12:40:07;6.30;;;2.70;;
60859;SDS011;46694;54.382;9.708;2023-03-08T12:43:13;4.85;;;2.03;;
60859;SDS011;46694;54.382;9.708;2023-03-08T12:51:29;12.63;;;2.92;;
60859;SDS011;46694;54.382;9.708;2023-03-08T12:54:15;7.07;;;2.50;;
60859;SDS011;46694;54.382;9.708;2023-03-08T12:57:00;7.22;;;2.90;;
60859;SDS011;46694;54.382;9.708;2023-03-08T12:59:56;8.73;;;3.22;;
60859;SDS011;46694;54.382;9.708;2023-03-08T13:02:44;6.90;;;3.03;;
60859;SDS011;46694;54.382;9.708;2023-03-08T13:10:59;6.97;;;2.92;;
60859;SDS011;46694;54.382;9.708;2023-03-08T13:14:02;5.80;;;2.92;;
60859;SDS011;46694;54.382;9.708;2023-03-08T13:16:43;9.98;;;3.40;;
60859;SDS011;46694;54.382;9.708;2023-03-08T13:19:27;14.95;;;4.07;;
60859;SDS011;46694;54.382;9.708;2023-03-08T13:22:29;6.35;;;3.60;;
60859;SDS011;46694;54.382;9.708;2023-03-08T13:25:38;8.23;;;3.08;;
60859;SDS011;46694;54.382;9.708;2023-03-08T13:28:49;6.13;;;2.95;;
60859;SDS011;46694;54.382;9.708;2023-03-08T13:31:29;9.95;;;3.15;;
60859;SDS011;46694;54.382;9.708;2023-03-08T13:34:26;7.28;;;2.97;;
60859;SDS011;46694;54.382;9.708;2023-03-08T13:37:22;7.45;;;3.40;;
60859;SDS011;46694;54.382;9.708;2023-03-08T13:40:13;7.28;;;3.08;;
60859;SDS011;46694;54.382;9.708;2023-03-08T13:43:00;7.75;;;2.83;;
60859;SDS011;46694;54.382;9.708;2023-03-08T13:45:46;6.20;;;3.20;;
60859;SDS011;46694;54.382;9.708;2023-03-08T13:48:30;7.03;;;2.83;;
60859;SDS011;46694;54.382;9.708;2023-03-08T13:51:14;4.38;;;2.35;;
60859;SDS011;46694;54.382;9.708;2023-03-08T13:53:56;5.93;;;3.03;;
60859;SDS011;46694;54.382;9.708;2023-03-08T13:56:36;10.27;;;3.13;;
60859;SDS011;46694;54.382;9.708;2023-03-08T13:59:19;8.88;;;3.10;;
60859;SDS011;46694;54.382;9.708;2023-03-08T14:01:59;6.97;;;3.00;;
60859;SDS011;46694;54.382;9.708;2023-03-08T14:04:41;5.85;;;3.08;;
60859;SDS011;46694;54.382;9.708;2023-03-08T14:07:30;8.10;;;3.03;;
60859;SDS011;46694;54.382;9.708;2023-03-08T14:10:12;4.85;;;2.70;;
60859;SDS011;46694;54.382;9.708;2023-03-08T14:12:52;8.60;;;2.75;;
60859;SDS011;46694;54.382;9.708;2023-03-08T14:15:32;4.95;;;2.30;;
60859;SDS011;46694;54.382;9.708;2023-03-08T14:18:23;6.25;;;2.60;;
60859;SDS011;46694;54.382;9.708;2023-03-08T14:24:17;8.88;;;2.55;;
60859;SDS011;46694;54.382;9.708;2023-03-08T14:27:04;5.53;;;2.55;;
60859;SDS011;46694;54.382;9.708;2023-03-08T14:30:09;5.95;;;2.22;;
60859;SDS011;46694;54.382;9.708;2023-03-08T14:33:04;5.43;;;2.13;;
60859;SDS011;46694;54.382;9.708;2023-03-08T14:36:04;8.95;;;2.20;;
60859;SDS011;46694;54.382;9.708;2023-03-08T14:38:46;6.35;;;2.20;;
60859;SDS011;46694;54.382;9.708;2023-03-08T14:41:36;8.07;;;2.72;;
60859;SDS011;46694;54.382;9.708;2023-03-08T14:44:19;6.53;;;2.65;;
60859;SDS011;46694;54.382;9.708;2023-03-08T14:47:06;5.90;;;2.40;;
60859;SDS011;46694;54.382;9.708;2023-03-08T14:50:02;6.78;;;2.63;;
60859;SDS011;46694;54.382;9.708;2023-03-08T14:53:22;6.55;;;2.72;;
60859;SDS011;46694;54.382;9.708;2023-03-08T14:56:12;11.82;;;3.10;;
60859;SDS011;46694;54.382;9.708;2023-03-08T14:58:54;6.55;;;3.08;;
60859;SDS011;46694;54.382;9.708;2023-03-08T15:01:37;6.47;;;2.47;;
60859;SDS011;46694;54.382;9.708;2023-03-08T15:04:19;4.80;;;2.38;;
60859;SDS011;46694;54.382;9.708;2023-03-08T15:07:02;5.85;;;2.67;;
60859;SDS011;46694;54.382;9.708;2023-03-08T15:09:42;7.07;;;2.60;;
60859;SDS011;46694;54.382;9.708;2023-03-08T15:12:21;5.80;;;2.80;;
60859;SDS011;46694;54.382;9.708;2023-03-08T15:15:01;5.07;;;2.53;;
60859;SDS011;46694;54.382;9.708;2023-03-08T15:17:46;6.60;;;2.83;;
60859;SDS011;46694;54.382;9.708;2023-03-08T15:20:27;6.43;;;2.85;;
60859;SDS011;46694;54.382;9.708;2023-03-08T15:23:06;7.70;;;3.33;;
60859;SDS011;46694;54.382;9.708;2023-03-08T15:25:46;6.70;;;3.08;;
60859;SDS011;46694;54.382;9.708;2023-03-08T15:28:26;7.35;;;3.55;;
60859;SDS011;46694;54.382;9.708;2023-03-08T15:31:06;8.60;;;4.95;;
60859;SDS011;46694;54.382;9.708;2023-03-08T15:33:46;9.85;;;4.20;;
60859;SDS011;46694;54.382;9.708;2023-03-08T15:36:26;8.25;;;4.07;;
60859;SDS011;46694;54.382;9.708;2023-03-08T15:39:12;10.85;;;4.45;;
60859;SDS011;46694;54.382;9.708;2023-03-08T15:41:52;11.85;;;5.05;;
60859;SDS011;46694;54.382;9.708;2023-03-08T15:44:32;9.63;;;4.70;;
60859;SDS011;46694;54.382;9.708;2023-03-08T15:47:11;16.85;;;5.43;;
60859;SDS011;46694;54.382;9.708;2023-03-08T15:49:51;9.60;;;4.60;;
60859;SDS011;46694;54.382;9.708;2023-03-08T15:52:31;11.65;;;5.03;;
60859;SDS011;46694;54.382;9.708;2023-03-08T15:55:11;9.32;;;5.95;;
60859;SDS011;46694;54.382;9.708;2023-03-08T15:57:52;8.15;;;5.45;;
60859;SDS011;46694;54.382;9.708;2023-03-08T16:00:32;12.70;;;5.75;;
60859;SDS011;46694;54.382;9.708;2023-03-08T16:03:12;7.45;;;4.95;;
60859;SDS011;46694;54.382;9.708;2023-03-08T16:05:53;10.55;;;5.07;;
60859;SDS011;46694;54.382;9.708;2023-03-08T16:08:33;8.07;;;4.80;;
60859;SDS011;46694;54.382;9.708;2023-03-08T16:11:15;8.13;;;5.15;;
60859;SDS011;46694;54.382;9.708;2023-03-08T16:13:58;7.63;;;4.63;;
60859;SDS011;46694;54.382;9.708;2023-03-08T16:16:38;12.23;;;7.88;;
60859;SDS011;46694;54.382;9.708;2023-03-08T16:19:17;5.00;;;4.47;;
60859;SDS011;46694;54.382;9.708;2023-03-08T16:21:57;5.13;;;4.50;;
60859;SDS011;46694;54.382;9.708;2023-03-08T16:24:37;11.30;;;5.30;;
60859;SDS011;46694;54.382;9.708;2023-03-08T16:27:16;7.03;;;4.55;;
60859;SDS011;46694;54.382;9.708;2023-03-08T16:29:56;5.57;;;4.93;;
60859;SDS011;46694;54.382;9.708;2023-03-08T16:32:35;5.35;;;4.28;;
60859;SDS011;46694;54.382;9.708;2023-03-08T16:35:15;10.82;;;5.25;;
60859;SDS011;46694;54.382;9.708;2023-03-08T16:37:55;8.85;;;4.80;;
60859;SDS011;46694;54.382;9.708;2023-03-08T16:40:36;5.22;;;4.25;;
60859;SDS011;46694;54.382;9.708;2023-03-08T16:43:15;7.63;;;5.60;;
60859;SDS011;46694;54.382;9.708;2023-03-08T16:45:56;6.75;;;5.32;;
60859;SDS011;46694;54.382;9.708;2023-03-08T16:48:38;5.93;;;5.30;;
60859;SDS011;46694;54.382;9.708;2023-03-08T16:51:17;7.65;;;5.70;;
60859;SDS011;46694;54.382;9.708;2023-03-08T16:53:59;7.93;;;5.50;;
60859;SDS011;46694;54.382;9.708;2023-03-08T16:56:39;7.22;;;4.57;;
60859;SDS011;46694;54.382;9.708;2023-03-08T16:59:21;6.00;;;5.05;;
60859;SDS011;46694;54.382;9.708;2023-03-08T17:02:01;6.47;;;5.72;;
60859;SDS011;46694;54.382;9.708;2023-03-08T17:04:40;5.65;;;5.05;;
60859;SDS011;46694;54.382;9.708;2023-03-08T17:07:20;5.57;;;4.50;;
60859;SDS011;46694;54.382;9.708;2023-03-08T17:10:00;5.40;;;4.88;;
60859;SDS011;46694;54.382;9.708;2023-03-08T17:12:40;4.90;;;4.50;;
60859;SDS011;46694;54.382;9.708;2023-03-08T17:15:19;6.45;;;5.20;;
60859;SDS011;46694;54.382;9.708;2023-03-08T17:17:59;7.28;;;5.38;;
60859;SDS011;46694;54.382;9.708;2023-03-08T17:20:39;9.30;;;6.43;;
60859;SDS011;46694;54.382;9.708;2023-03-08T17:23:19;6.50;;;5.82;;
60859;SDS011;46694;54.382;9.708;2023-03-08T17:26:01;7.32;;;6.05;;
60859;SDS011;46694;54.382;9.708;2023-03-08T17:28:42;6.85;;;5.55;;
60859;SDS011;46694;54.382;9.708;2023-03-08T17:31:22;11.27;;;5.45;;
60859;SDS011;46694;54.382;9.708;2023-03-08T17:34:02;5.22;;;4.70;;
60859;SDS011;46694;54.382;9.708;2023-03-08T17:36:42;8.65;;;4.85;;
60859;SDS011;46694;54.382;9.708;2023-03-08T17:39:23;8.55;;;4.72;;
60859;SDS011;46694;54.382;9.708;2023-03-08T17:42:03;4.90;;;4.47;;
60859;SDS011;46694;54.382;9.708;2023-03-08T17:44:43;9.50;;;5.70;;
60859;SDS011;46694;54.382;9.708;2023-03-08T17:47:22;5.88;;;4.78;;